createdAt,value
2022-11-21T00:00:18.789Z,91.86
2022-11-21T00:01:13.981Z,91.73
2022-11-21T00:02:09.920Z,91.77
2022-11-21T00:03:04.974Z,91.88
2022-11-21T00:04:00.145Z,92.04
2022-11-21T00:04:56.533Z,92.00
2022-11-21T00:05:51.725Z,91.95
2022-11-21T00:06:47.597Z,91.99
2022-11-21T00:07:42.773Z,92.06
2022-11-21T00:08:37.911Z,91.86
2022-11-21T00:09:33.707Z,91.75
2022-11-21T00:10:28.867Z,91.70
2022-11-21T00:11:25.007Z,91.70
2022-11-21T00:12:20.036Z,91.78
2022-11-21T00:13:15.091Z,91.89
2022-11-21T00:14:10.964Z,91.88
2022-11-21T00:15:06.279Z,91.97
2022-11-21T00:16:01.411Z,92.01
2022-11-21T00:16:57.714Z,92.24
2022-11-21T00:17:52.597Z,92.09
2022-11-21T00:18:48.018Z,91.81
2022-11-21T00:19:44.067Z,91.75
2022-11-21T00:20:39.246Z,91.78
2022-11-21T00:21:35.165Z,91.59
2022-11-21T00:22:30.196Z,91.70
2022-11-21T00:23:25.663Z,91.72
2022-11-21T00:24:21.433Z,91.60
2022-11-21T00:25:16.622Z,91.66
2022-11-21T00:26:12.423Z,91.65
2022-11-21T00:27:07.550Z,91.64
2022-11-21T00:28:02.871Z,91.66
2022-11-21T00:28:58.614Z,91.65
2022-11-21T00:29:53.915Z,91.62
2022-11-21T00:30:48.941Z,91.69
2022-11-21T00:31:44.164Z,91.61
2022-11-21T00:32:39.432Z,91.48
2022-11-21T00:33:34.470Z,91.46
2022-11-21T00:34:29.804Z,91.32
2022-11-21T00:35:24.661Z,91.32
2022-11-21T00:36:19.667Z,91.43
2022-11-21T00:37:14.723Z,91.52
2022-11-21T00:38:09.714Z,91.58
2022-11-21T00:39:04.867Z,91.64
2022-11-21T00:39:59.915Z,91.55
2022-11-21T00:40:54.967Z,91.59
2022-11-21T00:41:49.995Z,91.70
2022-11-21T00:42:45.074Z,91.71
2022-11-21T00:43:40.114Z,91.55
2022-11-21T00:44:35.191Z,91.58
2022-11-21T00:45:30.242Z,91.46
2022-11-21T00:46:25.280Z,91.39
2022-11-21T00:47:20.543Z,91.27
2022-11-21T00:48:15.327Z,91.32
2022-11-21T00:49:10.392Z,91.22
2022-11-21T00:50:05.426Z,91.13
2022-11-21T00:51:00.495Z,91.01
2022-11-21T00:51:55.480Z,91.09
2022-11-21T00:52:50.461Z,91.08
2022-11-21T00:53:45.543Z,91.06
2022-11-21T00:54:40.529Z,90.99
2022-11-21T00:55:41.525Z,90.99
2022-11-21T00:56:36.766Z,90.89
2022-11-21T00:57:34.143Z,90.83
2022-11-21T00:58:29.281Z,90.88
2022-11-21T00:59:24.435Z,90.81
2022-11-21T01:00:19.719Z,90.84
2022-11-21T01:01:14.965Z,90.89
2022-11-21T01:02:10.394Z,90.92
2022-11-21T01:03:05.429Z,90.88
2022-11-21T01:04:00.437Z,90.89
2022-11-21T01:04:55.669Z,90.99
2022-11-21T01:05:51.520Z,90.98
2022-11-21T01:06:46.749Z,90.95
2022-11-21T01:07:42.795Z,91.00
2022-11-21T01:08:37.715Z,91.08
2022-11-21T01:09:33.046Z,91.14
2022-11-21T01:10:28.826Z,91.20
2022-11-21T01:11:24.076Z,91.18
2022-11-21T01:12:19.233Z,91.22
2022-11-21T01:13:16.498Z,91.38
2022-11-21T01:14:10.904Z,91.40
2022-11-21T01:15:06.773Z,91.28
2022-11-21T01:16:01.921Z,91.23
2022-11-21T01:16:57.160Z,91.18
2022-11-21T01:17:53.115Z,91.18
2022-11-21T01:18:48.042Z,91.18
2022-11-21T01:19:44.026Z,91.24
2022-11-21T01:20:39.178Z,91.24
2022-11-21T01:21:34.616Z,91.32
2022-11-21T01:22:30.339Z,91.41
2022-11-21T01:23:25.562Z,91.39
2022-11-21T01:24:20.748Z,91.43
2022-11-21T01:25:17.307Z,91.50
2022-11-21T01:26:12.382Z,91.55
2022-11-21T01:27:08.207Z,91.68
2022-11-21T01:28:03.376Z,91.69
2022-11-21T01:28:58.563Z,91.64
2022-11-21T01:29:54.313Z,91.58
2022-11-21T01:30:49.518Z,91.43
2022-11-21T01:31:45.323Z,91.32
2022-11-21T01:32:40.649Z,91.31
2022-11-21T01:33:35.812Z,91.42
2022-11-21T01:34:31.901Z,91.38
2022-11-21T01:35:26.942Z,91.42
2022-11-21T01:36:22.292Z,91.32
2022-11-21T01:37:18.707Z,91.32
2022-11-21T01:38:13.740Z,91.38
2022-11-21T01:39:09.731Z,91.37
2022-11-21T01:40:04.941Z,91.35
2022-11-21T01:41:00.229Z,91.39
2022-11-21T01:41:55.986Z,91.45
2022-11-21T01:42:51.181Z,91.46
2022-11-21T01:43:47.074Z,91.53
2022-11-21T01:44:42.099Z,91.59
2022-11-21T01:45:37.627Z,91.64
2022-11-21T01:46:33.196Z,91.68
2022-11-21T01:47:28.475Z,91.71
2022-11-21T01:48:23.558Z,91.75
2022-11-21T01:49:20.071Z,91.76
2022-11-21T01:50:15.266Z,91.75
2022-11-21T01:51:11.286Z,91.79
2022-11-21T01:52:06.305Z,91.86
2022-11-21T01:53:01.605Z,91.89
2022-11-21T01:53:57.474Z,91.85
2022-11-21T01:54:52.664Z,91.83
2022-11-21T01:55:48.520Z,91.84
2022-11-21T01:56:43.734Z,91.84
2022-11-21T01:57:39.123Z,91.86
2022-11-21T01:58:34.838Z,91.85
2022-11-21T01:59:30.136Z,91.81
2022-11-21T02:00:25.121Z,91.86
2022-11-21T02:01:21.841Z,91.86
2022-11-21T02:02:17.048Z,91.87
2022-11-21T02:03:12.638Z,91.91
2022-11-21T02:04:07.927Z,91.95
2022-11-21T02:05:02.971Z,91.89
2022-11-21T02:05:58.149Z,91.87
2022-11-21T02:06:53.315Z,91.82
2022-11-21T02:07:50.123Z,91.78
2022-11-21T02:08:45.026Z,91.84
2022-11-21T02:09:40.876Z,91.91
2022-11-21T02:10:36.235Z,91.92
2022-11-21T02:11:31.536Z,91.89
2022-11-21T02:12:27.296Z,91.90
2022-11-21T02:13:22.556Z,91.89
2022-11-21T02:14:18.425Z,91.94
2022-11-21T02:15:13.413Z,91.92
2022-11-21T02:16:08.809Z,91.99
2022-11-21T02:17:04.533Z,91.97
2022-11-21T02:17:59.929Z,91.91
2022-11-21T02:18:55.038Z,91.81
2022-11-21T02:19:51.599Z,91.88
2022-11-21T02:20:46.891Z,91.89
2022-11-21T02:21:42.817Z,91.94
2022-11-21T02:22:37.856Z,92.00
2022-11-21T02:23:33.006Z,91.77
2022-11-21T02:24:28.293Z,91.62
2022-11-21T02:25:23.573Z,91.51
2022-11-21T02:26:18.629Z,91.53
2022-11-21T02:27:13.878Z,91.38
2022-11-21T02:28:08.923Z,91.30
2022-11-21T02:29:05.109Z,91.26
2022-11-21T02:30:00.077Z,91.37
2022-11-21T02:30:55.407Z,91.41
2022-11-21T02:31:50.565Z,91.40
2022-11-21T02:32:45.681Z,91.32
2022-11-21T02:33:40.809Z,91.24
2022-11-21T02:34:35.730Z,91.24
2022-11-21T02:35:30.873Z,91.27
2022-11-21T02:36:25.919Z,91.25
2022-11-21T02:37:20.952Z,91.25
2022-11-21T02:38:16.033Z,91.30
2022-11-21T02:39:11.106Z,91.39
2022-11-21T02:40:06.143Z,91.40
2022-11-21T02:41:01.188Z,91.46
2022-11-21T02:41:56.257Z,91.54
2022-11-21T02:42:52.865Z,91.54
2022-11-21T02:43:46.330Z,91.54
2022-11-21T02:44:42.039Z,91.59
2022-11-21T02:45:37.477Z,91.61
2022-11-21T02:46:32.521Z,91.62
2022-11-21T02:47:27.818Z,91.58
2022-11-21T02:48:22.849Z,91.61
2022-11-21T02:49:18.149Z,91.69
2022-11-21T02:50:13.147Z,91.69
2022-11-21T02:51:08.566Z,91.76
2022-11-21T02:52:03.799Z,91.77
2022-11-21T02:52:58.809Z,91.83
2022-11-21T02:53:54.128Z,91.79
2022-11-21T02:54:49.917Z,91.83
2022-11-21T02:55:44.773Z,91.92
2022-11-21T02:56:39.973Z,91.82
2022-11-21T02:57:34.952Z,91.84
2022-11-21T02:58:30.088Z,91.81
2022-11-21T02:59:25.224Z,91.80
2022-11-21T03:00:20.537Z,91.77
2022-11-21T03:01:15.789Z,91.88
2022-11-21T03:02:10.816Z,92.04
2022-11-21T03:03:06.115Z,92.15
2022-11-21T03:04:01.173Z,92.24
2022-11-21T03:04:56.985Z,92.31
2022-11-21T03:05:51.603Z,92.40
2022-11-21T03:06:46.621Z,92.50
2022-11-21T03:07:42.027Z,92.60
2022-11-21T03:08:37.086Z,92.68
2022-11-21T03:09:32.239Z,92.75
2022-11-21T03:10:27.439Z,92.75
2022-11-21T03:11:22.739Z,92.85
2022-11-21T03:12:17.913Z,92.90
2022-11-21T03:13:13.207Z,92.98
2022-11-21T03:14:08.238Z,93.12
2022-11-21T03:15:03.456Z,93.19
2022-11-21T03:15:58.781Z,93.19
2022-11-21T03:16:53.795Z,93.17
2022-11-21T03:17:49.025Z,93.28
2022-11-21T03:18:44.203Z,93.44
2022-11-21T03:19:39.609Z,93.51
2022-11-21T03:20:34.704Z,93.54
2022-11-21T03:21:29.863Z,93.60
2022-11-21T03:22:25.024Z,93.61
2022-11-21T03:23:20.274Z,93.58
2022-11-21T03:24:15.442Z,93.70
2022-11-21T03:25:10.681Z,93.70
2022-11-21T03:26:05.956Z,93.63
2022-11-21T03:27:01.002Z,93.59
2022-11-21T03:27:56.179Z,93.56
2022-11-21T03:28:51.326Z,93.43
2022-11-21T03:29:49.480Z,93.39
2022-11-21T03:30:44.569Z,93.39
2022-11-21T03:31:39.756Z,93.48
2022-11-21T03:32:35.077Z,93.42
2022-11-21T03:33:30.394Z,93.38
2022-11-21T03:34:26.562Z,93.27
2022-11-21T03:35:21.760Z,93.25
2022-11-21T03:36:15.987Z,93.23
2022-11-21T03:37:11.051Z,93.40
2022-11-21T03:38:06.060Z,93.43
2022-11-21T03:39:01.089Z,93.49
2022-11-21T03:39:56.135Z,93.55
2022-11-21T03:40:51.328Z,93.61
2022-11-21T03:41:47.148Z,93.63
2022-11-21T03:42:41.388Z,93.63
2022-11-21T03:43:36.439Z,93.76
2022-11-21T03:44:31.485Z,93.74
2022-11-21T03:45:26.512Z,93.76
2022-11-21T03:46:21.614Z,93.86
2022-11-21T03:47:16.595Z,93.93
2022-11-21T03:48:11.649Z,93.92
2022-11-21T03:49:06.753Z,93.89
2022-11-21T03:50:01.773Z,93.98
2022-11-21T03:50:56.806Z,93.98
2022-11-21T03:51:51.820Z,93.98
2022-11-21T03:52:46.907Z,93.86
2022-11-21T03:53:42.042Z,93.95
2022-11-21T03:54:37.011Z,93.92
2022-11-21T03:55:32.073Z,93.86
2022-11-21T03:56:27.053Z,93.90
2022-11-21T03:57:22.252Z,93.97
2022-11-21T03:58:17.306Z,93.93
2022-11-21T03:59:12.470Z,93.85
2022-11-21T04:00:07.472Z,93.75
2022-11-21T04:01:02.700Z,93.75
2022-11-21T04:01:57.634Z,93.69
2022-11-21T04:02:54.284Z,93.67
2022-11-21T04:03:49.377Z,93.59
2022-11-21T04:04:44.510Z,93.56
2022-11-21T04:05:39.507Z,93.51
2022-11-21T04:06:34.658Z,93.39
2022-11-21T04:07:29.763Z,93.34
2022-11-21T04:08:24.798Z,93.25
2022-11-21T04:09:19.840Z,93.24
2022-11-21T04:10:14.904Z,93.18
2022-11-21T04:11:10.045Z,93.30
2022-11-21T04:12:07.759Z,93.25
2022-11-21T04:13:00.255Z,93.25
2022-11-21T04:13:55.365Z,93.23
2022-11-21T04:14:50.421Z,93.19
2022-11-21T04:15:45.480Z,93.19
2022-11-21T04:16:40.512Z,93.17
2022-11-21T04:17:35.541Z,93.19
2022-11-21T04:18:30.530Z,93.23
2022-11-21T04:19:27.584Z,93.21
2022-11-21T04:20:22.553Z,93.22
2022-11-21T04:21:17.659Z,93.17
2022-11-21T04:22:12.663Z,93.04
2022-11-21T04:23:07.708Z,93.10
2022-11-21T04:24:02.851Z,93.06
2022-11-21T04:24:57.976Z,93.02
2022-11-21T04:25:53.068Z,93.00
2022-11-21T04:26:48.287Z,93.03
2022-11-21T04:27:43.430Z,92.95
2022-11-21T04:28:38.584Z,92.87
2022-11-21T04:29:33.736Z,92.86
2022-11-21T04:30:28.854Z,92.89
2022-11-21T04:31:23.834Z,92.75
2022-11-21T04:32:18.892Z,92.61
2022-11-21T04:33:13.903Z,92.56
2022-11-21T04:34:08.990Z,92.62
2022-11-21T04:35:03.972Z,92.66
2022-11-21T04:36:01.141Z,92.67
2022-11-21T04:36:56.195Z,92.66
2022-11-21T04:37:51.211Z,92.64
2022-11-21T04:38:46.383Z,92.63
2022-11-21T04:39:41.260Z,92.65
2022-11-21T04:40:36.220Z,92.57
2022-11-21T04:41:31.270Z,92.50
2022-11-21T04:42:26.272Z,92.44
2022-11-21T04:43:22.280Z,92.46
2022-11-21T04:44:17.412Z,92.48
2022-11-21T04:45:12.538Z,92.47
2022-11-21T04:46:07.702Z,92.49
2022-11-21T04:47:05.607Z,92.62
2022-11-21T04:47:58.107Z,92.72
2022-11-21T04:48:53.315Z,92.85
2022-11-21T04:49:48.406Z,92.84
2022-11-21T04:50:43.843Z,92.90
2022-11-21T04:51:41.447Z,92.97
2022-11-21T04:52:36.698Z,93.00
2022-11-21T04:53:31.924Z,92.97
2022-11-21T04:54:27.466Z,92.96
2022-11-21T04:55:22.344Z,92.97
2022-11-21T04:56:17.865Z,93.00
2022-11-21T04:57:12.930Z,93.00
2022-11-21T04:58:07.922Z,92.97
2022-11-21T04:59:03.150Z,93.01
2022-11-21T04:59:59.115Z,92.97
2022-11-21T05:00:54.309Z,92.96
2022-11-21T05:01:50.053Z,93.07
2022-11-21T05:02:45.230Z,93.21
2022-11-21T05:03:40.739Z,93.28
2022-11-21T05:04:36.336Z,93.38
2022-11-21T05:05:31.509Z,93.36
2022-11-21T05:06:26.674Z,93.33
2022-11-21T05:07:23.234Z,93.34
2022-11-21T05:08:18.413Z,93.25
2022-11-21T05:09:14.125Z,93.24
2022-11-21T05:10:09.366Z,93.21
2022-11-21T05:11:04.567Z,93.20
2022-11-21T05:12:00.494Z,93.21
2022-11-21T05:12:55.819Z,93.34
2022-11-21T05:13:51.677Z,93.36
2022-11-21T05:14:46.685Z,93.31
2022-11-21T05:15:42.125Z,93.26
2022-11-21T05:16:37.854Z,93.24
2022-11-21T05:17:33.189Z,93.25
2022-11-21T05:18:28.222Z,93.24
2022-11-21T05:19:24.599Z,93.25
2022-11-21T05:20:19.939Z,93.25
2022-11-21T05:21:15.699Z,93.24
2022-11-21T05:22:10.979Z,93.21
2022-11-21T05:23:06.445Z,93.22
2022-11-21T05:24:02.042Z,93.32
2022-11-21T05:24:57.201Z,93.43
2022-11-21T05:25:53.191Z,93.45
2022-11-21T05:26:48.361Z,93.45
2022-11-21T05:27:43.786Z,93.46
2022-11-21T05:28:39.657Z,93.42
2022-11-21T05:29:34.819Z,93.41
2022-11-21T05:30:29.996Z,93.52
2022-11-21T05:31:26.396Z,93.51
2022-11-21T05:32:21.661Z,93.53
2022-11-21T05:33:17.414Z,93.45
2022-11-21T05:34:12.565Z,93.45
2022-11-21T05:35:07.969Z,93.42
2022-11-21T05:36:03.885Z,93.43
2022-11-21T05:36:59.127Z,93.41
2022-11-21T05:37:54.879Z,93.50
2022-11-21T05:38:50.070Z,93.64
2022-11-21T05:39:45.575Z,93.65
2022-11-21T05:40:41.076Z,93.66
2022-11-21T05:41:36.249Z,93.61
2022-11-21T05:42:31.425Z,93.56
2022-11-21T05:43:27.768Z,93.53
2022-11-21T05:44:22.932Z,93.46
2022-11-21T05:45:18.905Z,93.43
2022-11-21T05:46:13.846Z,93.44
2022-11-21T05:47:09.052Z,93.54
2022-11-21T05:48:04.868Z,93.63
2022-11-21T05:49:00.049Z,93.71
2022-11-21T05:49:55.816Z,93.79
2022-11-21T05:50:51.028Z,93.83
2022-11-21T05:51:46.351Z,93.86
2022-11-21T05:52:42.270Z,93.88
2022-11-21T05:53:37.608Z,93.81
2022-11-21T05:54:32.746Z,93.75
2022-11-21T05:55:29.228Z,93.80
2022-11-21T05:56:24.581Z,93.88
2022-11-21T05:57:20.148Z,93.88
2022-11-21T05:58:15.325Z,93.90
2022-11-21T05:59:10.488Z,93.88
2022-11-21T06:00:05.727Z,93.89
2022-11-21T06:01:01.088Z,93.89
2022-11-21T06:03:24.877Z,94.47
2022-11-21T06:04:18.974Z,94.31
2022-11-21T06:05:14.235Z,94.19
2022-11-21T06:06:09.363Z,94.17
2022-11-21T06:07:04.475Z,94.11
2022-11-21T06:07:59.782Z,93.96
2022-11-21T06:08:54.754Z,93.88
2022-11-21T06:09:49.987Z,93.87
2022-11-21T06:10:45.068Z,93.82
2022-11-21T06:11:40.312Z,93.81
2022-11-21T06:12:35.611Z,93.76
2022-11-21T06:13:30.942Z,93.67
2022-11-21T06:14:26.291Z,93.58
2022-11-21T06:15:21.140Z,93.64
2022-11-21T06:16:16.425Z,93.61
2022-11-21T06:17:11.668Z,93.53
2022-11-21T06:18:06.811Z,93.43
2022-11-21T06:19:01.940Z,93.24
2022-11-21T06:19:57.097Z,93.24
2022-11-21T06:20:52.216Z,93.17
2022-11-21T06:21:47.403Z,93.12
2022-11-21T06:22:42.597Z,93.03
2022-11-21T06:23:37.876Z,92.97
2022-11-21T06:24:32.877Z,93.03
2022-11-21T06:25:28.154Z,93.03
2022-11-21T06:26:23.325Z,93.00
2022-11-21T06:27:18.743Z,93.01
2022-11-21T06:28:13.828Z,92.96
2022-11-21T06:29:09.013Z,93.01
2022-11-21T06:30:04.058Z,92.99
2022-11-21T06:30:59.280Z,92.93
2022-11-21T06:31:54.486Z,92.90
2022-11-21T06:32:49.744Z,92.84
2022-11-21T06:33:46.172Z,92.87
2022-11-21T06:34:40.323Z,92.89
2022-11-21T06:35:35.446Z,92.84
2022-11-21T06:36:30.750Z,92.76
2022-11-21T06:37:25.985Z,92.73
2022-11-21T06:38:21.359Z,92.72
2022-11-21T06:39:16.497Z,92.71
2022-11-21T06:40:11.843Z,92.68
2022-11-21T06:41:07.197Z,92.62
2022-11-21T06:42:02.356Z,92.55
2022-11-21T06:42:57.617Z,92.50
2022-11-21T06:43:53.050Z,92.52
2022-11-21T06:44:48.141Z,92.53
2022-11-21T06:45:43.418Z,92.58
2022-11-21T06:46:38.695Z,92.57
2022-11-21T06:47:34.000Z,92.56
2022-11-21T06:48:29.231Z,92.56
2022-11-21T06:49:24.560Z,92.58
2022-11-21T06:50:19.822Z,92.51
2022-11-21T06:51:15.103Z,92.47
2022-11-21T06:52:10.355Z,92.43
2022-11-21T06:53:05.635Z,92.49
2022-11-21T06:54:01.025Z,92.51
2022-11-21T06:54:56.185Z,92.52
2022-11-21T06:55:51.408Z,92.47
2022-11-21T06:56:46.701Z,92.38
2022-11-21T06:57:41.963Z,92.29
2022-11-21T06:58:37.351Z,92.26
2022-11-21T06:59:32.503Z,92.26
2022-11-21T07:00:27.747Z,92.32
2022-11-21T07:01:23.143Z,92.36
2022-11-21T07:02:18.294Z,92.41
2022-11-21T07:03:13.547Z,92.51
2022-11-21T07:04:09.967Z,92.60
2022-11-21T07:05:05.060Z,92.60
2022-11-21T07:06:00.549Z,92.64
2022-11-21T07:06:55.475Z,92.68
2022-11-21T07:07:51.067Z,92.86
2022-11-21T07:08:47.905Z,92.92
2022-11-21T07:09:42.760Z,92.85
2022-11-21T07:10:37.133Z,92.82
2022-11-21T07:11:32.557Z,92.87
2022-11-21T07:12:27.714Z,93.02
2022-11-21T07:13:23.071Z,92.85
2022-11-21T07:14:18.490Z,92.65
2022-11-21T07:15:13.893Z,92.52
2022-11-21T07:16:08.966Z,93.36
2022-11-21T07:17:04.279Z,94.59
2022-11-21T07:17:59.657Z,95.15
2022-11-21T07:18:55.237Z,93.51
2022-11-21T07:19:50.475Z,91.29
2022-11-21T07:20:45.855Z,88.51
2022-11-21T07:21:41.211Z,85.83
2022-11-21T07:22:36.577Z,84.26
2022-11-21T07:23:32.078Z,82.97
2022-11-21T07:24:27.467Z,82.13
2022-11-21T07:25:22.833Z,81.69
2022-11-21T07:26:18.125Z,80.99
2022-11-21T07:27:13.188Z,80.21
2022-11-21T07:28:08.284Z,79.56
2022-11-21T07:29:03.446Z,79.16
2022-11-21T07:29:58.415Z,78.64
2022-11-21T07:30:53.496Z,77.81
2022-11-21T07:31:48.547Z,77.41
2022-11-21T07:32:43.575Z,76.47
2022-11-21T07:33:39.090Z,75.77
2022-11-21T07:34:34.175Z,75.11
2022-11-21T07:35:29.419Z,74.03
2022-11-21T07:36:24.484Z,75.09
2022-11-21T07:37:19.559Z,76.56
2022-11-21T07:38:14.660Z,76.61
2022-11-21T07:39:09.829Z,76.19
2022-11-21T07:40:04.913Z,77.86
2022-11-21T07:41:00.031Z,77.26
2022-11-21T07:41:55.104Z,77.01
2022-11-21T07:42:50.235Z,76.27
2022-11-21T07:43:45.470Z,76.18
2022-11-21T07:44:40.447Z,75.79
2022-11-21T07:45:35.539Z,74.69
2022-11-21T07:46:30.818Z,74.83
2022-11-21T07:47:25.715Z,75.17
2022-11-21T07:48:20.804Z,74.71
2022-11-21T07:49:15.771Z,76.59
2022-11-21T07:50:13.460Z,76.60
2022-11-21T07:51:08.505Z,75.93
2022-11-21T07:52:03.602Z,78.04
2022-11-21T07:52:58.548Z,77.37
2022-11-21T07:53:53.581Z,77.43
2022-11-21T07:54:48.671Z,76.67
2022-11-21T07:55:43.801Z,75.95
2022-11-21T07:56:39.233Z,76.09
2022-11-21T07:57:34.868Z,75.59
2022-11-21T07:58:30.211Z,74.80
2022-11-21T07:59:25.851Z,73.72
2022-11-21T08:00:20.811Z,72.26
2022-11-21T08:01:16.205Z,74.63
2022-11-21T08:02:11.665Z,73.99
2022-11-21T08:03:06.913Z,73.89
2022-11-21T08:04:02.268Z,73.71
2022-11-21T08:04:57.632Z,73.65
2022-11-21T08:05:53.041Z,72.72
2022-11-21T08:06:48.417Z,75.24
2022-11-21T08:07:43.885Z,75.71
2022-11-21T08:08:39.193Z,77.72
2022-11-21T08:09:39.626Z,77.82
2022-11-21T08:10:31.020Z,76.79
2022-11-21T08:11:25.421Z,76.03
2022-11-21T08:12:20.676Z,77.66
2022-11-21T08:13:20.186Z,76.43
2022-11-21T08:14:15.699Z,74.93
2022-11-21T08:15:10.947Z,73.74
2022-11-21T08:16:06.374Z,73.27
2022-11-21T08:17:01.826Z,73.15
2022-11-21T08:17:57.270Z,72.58
2022-11-21T08:18:52.584Z,71.57
2022-11-21T08:19:47.914Z,70.23
2022-11-21T08:20:43.572Z,69.68
2022-11-21T08:21:38.767Z,70.57
2022-11-21T08:22:34.125Z,70.46
2022-11-21T08:23:29.580Z,69.64
2022-11-21T08:24:24.905Z,69.89
2022-11-21T08:25:20.397Z,69.58
2022-11-21T08:26:15.916Z,72.88
2022-11-21T08:27:10.899Z,76.88
2022-11-21T08:28:05.967Z,76.50
2022-11-21T08:29:00.977Z,74.71
2022-11-21T08:29:56.064Z,73.43
2022-11-21T08:30:51.176Z,74.61
2022-11-21T08:31:46.235Z,75.47
2022-11-21T08:32:41.394Z,75.04
2022-11-21T08:33:36.423Z,73.61
2022-11-21T08:34:31.465Z,72.89
2022-11-21T08:35:26.547Z,71.65
2022-11-21T08:36:22.680Z,71.13
2022-11-21T08:37:17.769Z,71.77
2022-11-21T08:38:13.006Z,73.38
2022-11-21T08:39:08.055Z,72.72
2022-11-21T08:40:03.102Z,72.72
2022-11-21T08:40:58.228Z,74.49
2022-11-21T08:41:53.334Z,76.30
2022-11-21T08:42:48.328Z,74.42
2022-11-21T08:43:44.705Z,73.07
2022-11-21T08:44:40.177Z,71.94
2022-11-21T08:45:35.432Z,71.00
2022-11-21T08:46:30.935Z,70.13
2022-11-21T08:47:26.212Z,68.36
2022-11-21T08:48:21.842Z,69.40
2022-11-21T08:49:17.121Z,68.99
2022-11-21T08:50:12.444Z,67.88
2022-11-21T08:51:07.922Z,67.01
2022-11-21T08:52:03.323Z,66.12
2022-11-21T08:52:58.460Z,65.69
2022-11-21T08:53:53.505Z,65.28
2022-11-21T08:54:48.540Z,64.78
2022-11-21T08:55:43.515Z,63.97
2022-11-21T08:56:38.707Z,64.94
2022-11-21T08:57:33.713Z,64.16
2022-11-21T08:58:28.797Z,64.13
2022-11-21T08:59:26.849Z,66.12
2022-11-21T09:00:21.855Z,66.70
2022-11-21T09:01:16.924Z,66.14
2022-11-21T09:02:12.065Z,66.98
2022-11-21T09:03:07.015Z,69.15
2022-11-21T09:04:02.191Z,68.46
2022-11-21T09:04:57.606Z,69.99
2022-11-21T09:05:52.387Z,71.48
2022-11-21T09:06:48.054Z,74.17
2022-11-21T09:07:43.471Z,73.04
2022-11-21T09:08:38.533Z,75.54
2022-11-21T09:09:33.961Z,74.44
2022-11-21T09:10:29.384Z,75.31
2022-11-21T09:11:24.609Z,75.28
2022-11-21T09:12:19.963Z,74.12
2022-11-21T09:13:15.354Z,72.94
2022-11-21T09:14:10.803Z,72.84
2022-11-21T09:15:05.947Z,73.06
2022-11-21T09:16:00.917Z,71.31
2022-11-21T09:17:00.792Z,69.01
2022-11-21T09:17:51.939Z,67.80
2022-11-21T09:18:47.092Z,66.15
2022-11-21T09:19:41.027Z,68.18
2022-11-21T09:20:36.249Z,68.12
2022-11-21T09:21:31.272Z,68.35
2022-11-21T09:22:26.409Z,67.02
2022-11-21T09:23:21.753Z,66.20
2022-11-21T09:24:16.478Z,66.32
2022-11-21T09:25:11.505Z,65.39
2022-11-21T09:26:06.959Z,65.08
2022-11-21T09:27:02.324Z,65.63
2022-11-21T09:27:57.773Z,64.42
2022-11-21T09:28:53.376Z,64.31
2022-11-21T09:29:53.930Z,65.24
2022-11-21T09:30:44.395Z,64.42
2022-11-21T09:31:38.606Z,64.90
2022-11-21T09:32:33.508Z,64.51
2022-11-21T09:33:28.591Z,63.89
2022-11-21T09:34:23.689Z,63.59
2022-11-21T09:35:18.778Z,63.42
2022-11-21T09:36:13.775Z,63.04
2022-11-21T09:37:08.837Z,62.77
2022-11-21T09:38:03.831Z,64.37
2022-11-21T09:38:58.925Z,66.51
2022-11-21T09:39:54.096Z,65.43
2022-11-21T09:40:49.009Z,64.75
2022-11-21T09:41:44.220Z,63.72
2022-11-21T09:42:39.389Z,63.28
2022-11-21T09:43:34.600Z,64.36
2022-11-21T09:44:29.924Z,66.38
2022-11-21T09:45:24.692Z,67.56
2022-11-21T09:46:19.705Z,66.70
2022-11-21T09:47:17.153Z,65.97
2022-11-21T09:48:12.215Z,65.44
2022-11-21T09:49:07.213Z,70.23
2022-11-21T09:50:02.293Z,70.78
2022-11-21T09:50:57.375Z,69.13
2022-11-21T09:51:52.479Z,70.69
2022-11-21T09:52:47.555Z,72.53
2022-11-21T09:53:42.532Z,73.35
2022-11-21T09:54:37.748Z,73.56
2022-11-21T09:55:33.102Z,74.41
2022-11-21T09:56:28.470Z,75.51
2022-11-21T09:57:23.976Z,72.11
2022-11-21T09:58:19.639Z,69.56
2022-11-21T09:59:14.967Z,67.57
2022-11-21T10:00:10.389Z,66.00
2022-11-21T10:01:05.988Z,63.62
2022-11-21T10:02:01.256Z,62.78
2022-11-21T10:02:56.708Z,62.91
2022-11-21T10:03:52.100Z,62.25
2022-11-21T10:04:47.560Z,61.69
2022-11-21T10:05:42.577Z,62.00
2022-11-21T10:06:37.682Z,60.48
2022-11-21T10:07:32.797Z,60.20
2022-11-21T10:08:27.820Z,60.08
2022-11-21T10:09:22.928Z,59.55
2022-11-21T10:10:17.999Z,57.89
2022-11-21T10:11:19.417Z,57.42
2022-11-21T10:12:09.125Z,58.36
2022-11-21T10:13:03.205Z,57.63
2022-11-21T10:13:58.225Z,57.17
2022-11-21T10:14:53.338Z,56.84
2022-11-21T10:15:48.351Z,57.51
2022-11-21T10:16:43.425Z,58.29
2022-11-21T10:17:38.479Z,59.72
2022-11-21T10:18:36.236Z,59.18
2022-11-21T10:19:31.664Z,60.36
2022-11-21T10:20:27.517Z,60.80
2022-11-21T10:21:22.715Z,59.67
2022-11-21T10:22:18.178Z,58.88
2022-11-21T10:23:13.874Z,58.16
2022-11-21T10:24:09.217Z,57.07
2022-11-21T10:25:04.626Z,55.42
2022-11-21T10:25:59.983Z,57.12
2022-11-21T10:26:55.358Z,56.33
2022-11-21T10:27:50.901Z,55.09
2022-11-21T10:28:46.291Z,54.98
2022-11-21T10:29:41.799Z,55.55
2022-11-21T10:30:37.433Z,58.15
2022-11-21T10:31:32.819Z,62.24
2022-11-21T10:32:27.879Z,62.61
2022-11-21T10:33:22.960Z,63.58
2022-11-21T10:34:18.217Z,64.19
2022-11-21T10:35:13.182Z,65.51
2022-11-21T10:36:08.163Z,65.77
2022-11-21T10:37:06.466Z,66.68
2022-11-21T10:37:59.230Z,68.37
2022-11-21T10:38:53.264Z,70.11
2022-11-21T10:39:48.345Z,70.69
2022-11-21T10:40:43.471Z,71.57
2022-11-21T10:41:41.012Z,72.24
2022-11-21T10:42:36.051Z,71.01
2022-11-21T10:43:31.118Z,69.51
2022-11-21T10:44:26.647Z,68.91
2022-11-21T10:45:21.287Z,68.26
2022-11-21T10:46:16.387Z,67.96
2022-11-21T10:47:11.397Z,67.73
2022-11-21T10:48:08.287Z,68.34
2022-11-21T10:49:02.131Z,70.09
2022-11-21T10:49:57.652Z,71.12
2022-11-21T10:50:52.986Z,71.09
2022-11-21T10:51:48.425Z,71.81
2022-11-21T10:52:43.832Z,69.03
2022-11-21T10:53:40.488Z,67.09
2022-11-21T10:54:35.847Z,63.02
2022-11-21T10:55:31.300Z,63.42
2022-11-21T10:56:26.822Z,64.73
2022-11-21T10:57:22.228Z,64.41
2022-11-21T10:58:17.343Z,65.26
2022-11-21T10:59:12.486Z,67.93
2022-11-21T11:00:07.471Z,66.75
2022-11-21T11:01:02.565Z,65.03
2022-11-21T11:01:57.492Z,63.42
2022-11-21T11:02:52.542Z,61.77
2022-11-21T11:04:06.846Z,61.33
2022-11-21T11:04:50.790Z,62.31
2022-11-21T11:05:39.717Z,61.92
2022-11-21T11:06:33.756Z,63.05
2022-11-21T11:07:28.825Z,63.36
2022-11-21T11:08:25.205Z,61.79
2022-11-21T11:09:20.433Z,63.01
2022-11-21T11:10:16.136Z,61.49
2022-11-21T11:11:11.723Z,61.38
2022-11-21T11:12:07.171Z,59.96
2022-11-21T11:13:05.307Z,58.88
2022-11-21T11:13:59.180Z,59.08
2022-11-21T11:14:53.459Z,57.86
2022-11-21T11:15:48.964Z,56.17
2022-11-21T11:16:44.324Z,56.49
2022-11-21T11:17:39.877Z,57.33
2022-11-21T11:18:35.335Z,58.51
2022-11-21T11:19:37.001Z,57.97
2022-11-21T11:20:27.419Z,57.29
2022-11-21T11:21:21.478Z,55.96
2022-11-21T11:22:16.551Z,56.90
2022-11-21T11:23:11.761Z,57.95
2022-11-21T11:24:06.814Z,60.89
2022-11-21T11:25:01.904Z,62.84
2022-11-21T11:26:01.198Z,62.68
2022-11-21T11:26:56.230Z,64.82
2022-11-21T11:27:51.340Z,66.43
2022-11-21T11:28:46.392Z,67.77
2022-11-21T11:29:41.373Z,67.09
2022-11-21T11:30:36.510Z,67.04
2022-11-21T11:31:31.603Z,67.80
2022-11-21T11:32:26.659Z,67.61
2022-11-21T11:33:21.938Z,67.94
2022-11-21T11:34:17.037Z,65.80
2022-11-21T11:35:12.088Z,63.26
2022-11-21T11:36:07.185Z,61.30
2022-11-21T11:37:02.119Z,60.09
2022-11-21T11:37:57.610Z,58.86
2022-11-21T11:38:52.966Z,59.45
2022-11-21T11:39:48.406Z,60.32
2022-11-21T11:40:43.848Z,60.07
2022-11-21T11:41:39.578Z,60.75
2022-11-21T11:42:35.046Z,60.65
2022-11-21T11:43:30.386Z,60.24
2022-11-21T11:44:25.609Z,60.28
2022-11-21T11:45:20.484Z,60.72
2022-11-21T11:46:15.534Z,61.09
2022-11-21T11:47:10.756Z,60.90
2022-11-21T11:48:05.933Z,61.03
2022-11-21T11:49:19.919Z,60.48
2022-11-21T11:49:57.038Z,60.19
2022-11-21T11:50:52.781Z,60.22
2022-11-21T11:51:47.917Z,60.49
2022-11-21T11:52:42.992Z,59.42
2022-11-21T11:53:38.057Z,59.31